createdAt,value
2017-07-20T00:02:14.157Z,67.91
2017-07-20T00:04:40.595Z,68.06
2017-07-20T00:07:06.950Z,68.22
2017-07-20T00:09:34.119Z,68.24
2017-07-20T00:12:01.248Z,68.20
2017-07-20T00:14:27.626Z,67.99
2017-07-20T00:16:54.767Z,67.99
2017-07-20T00:19:21.164Z,67.97
2017-07-20T00:21:47.536Z,67.97
2017-07-20T00:24:13.894Z,67.95
2017-07-20T00:26:40.272Z,67.94
2017-07-20T00:29:06.628Z,67.94
2017-07-20T00:31:32.997Z,67.92
2017-07-20T00:33:59.375Z,67.90
2017-07-20T00:36:25.737Z,67.92
2017-07-20T00:38:52.127Z,67.96
2017-07-20T00:41:18.494Z,68.06
2017-07-20T00:43:44.852Z,68.18
2017-07-20T00:46:12.010Z,68.19
2017-07-20T00:48:38.366Z,68.25
2017-07-20T00:51:05.516Z,68.37
2017-07-20T00:53:31.884Z,68.36
2017-07-20T00:55:59.170Z,68.33
2017-07-20T00:58:25.530Z,68.20
2017-07-20T01:00:51.890Z,68.11
2017-07-20T01:03:18.270Z,68.15
2017-07-20T01:05:44.637Z,68.16
2017-07-20T01:08:11.022Z,68.09
2017-07-20T01:10:37.388Z,68.05
2017-07-20T01:13:03.747Z,68.01
2017-07-20T01:15:30.127Z,67.98
2017-07-20T01:17:56.498Z,67.97
2017-07-20T01:20:22.875Z,68.00
2017-07-20T01:22:49.229Z,67.97
2017-07-20T01:25:15.603Z,67.94
2017-07-20T01:27:41.986Z,68.01
2017-07-20T01:30:08.361Z,68.11
2017-07-20T01:32:35.508Z,68.42
2017-07-20T01:35:02.661Z,68.35
2017-07-20T01:37:29.046Z,68.31
2017-07-20T01:39:55.411Z,68.28
2017-07-20T01:42:21.782Z,68.28
2017-07-20T01:44:48.168Z,68.23
2017-07-20T01:47:14.541Z,68.14
2017-07-20T01:49:40.932Z,68.12
2017-07-20T01:52:07.323Z,68.07
2017-07-20T01:54:33.679Z,68.11
2017-07-20T01:57:00.815Z,68.08
2017-07-20T01:59:27.179Z,68.05
2017-07-20T02:01:53.544Z,68.04
2017-07-20T02:04:20.704Z,68.00
2017-07-20T02:06:47.056Z,68.00
2017-07-20T02:09:14.207Z,67.98
2017-07-20T02:11:40.567Z,68.18
2017-07-20T02:14:06.947Z,68.35
2017-07-20T02:16:34.076Z,68.53
2017-07-20T02:19:00.460Z,68.60
2017-07-20T02:21:27.580Z,68.43
2017-07-20T02:23:54.029Z,68.35
2017-07-20T02:26:20.395Z,68.28
2017-07-20T02:28:46.782Z,68.29
2017-07-20T02:31:13.143Z,68.35
2017-07-20T02:33:39.518Z,68.34
2017-07-20T02:36:05.883Z,68.29
2017-07-20T02:38:32.250Z,68.27
2017-07-20T02:40:58.622Z,68.20
2017-07-20T02:43:25.002Z,68.14
2017-07-20T02:45:51.431Z,68.11
2017-07-20T02:48:17.807Z,68.08
2017-07-20T02:50:44.386Z,68.08
2017-07-20T02:53:10.766Z,68.19
2017-07-20T02:55:37.891Z,68.38
2017-07-20T02:58:04.247Z,68.81
2017-07-20T03:00:30.612Z,68.85
2017-07-20T03:02:56.983Z,68.89
2017-07-20T03:05:24.109Z,68.97
2017-07-20T03:07:50.493Z,68.88
2017-07-20T03:10:16.851Z,68.66
2017-07-20T03:12:43.978Z,68.69
2017-07-20T03:15:10.343Z,68.66
2017-07-20T03:17:36.776Z,68.64
2017-07-20T03:20:03.141Z,68.59
2017-07-20T03:22:29.507Z,68.60
2017-07-20T03:24:55.908Z,68.54
2017-07-20T03:27:22.284Z,68.52
2017-07-20T03:29:48.657Z,68.59
2017-07-20T03:32:15.028Z,68.62
2017-07-20T03:34:41.422Z,68.68
2017-07-20T03:37:07.799Z,69.12
2017-07-20T03:39:34.187Z,69.18
2017-07-20T03:42:00.551Z,69.20
2017-07-20T03:44:26.939Z,69.28
2017-07-20T03:46:53.310Z,69.34
2017-07-20T03:49:20.466Z,69.48
2017-07-20T03:51:47.601Z,69.44
2017-07-20T03:54:13.996Z,69.33
2017-07-20T03:56:41.228Z,69.04
2017-07-20T03:59:07.595Z,69.00
2017-07-20T04:01:33.974Z,68.82
2017-07-20T04:04:00.359Z,69.04
2017-07-20T04:06:26.734Z,69.22
2017-07-20T04:08:53.099Z,69.27
2017-07-20T04:11:19.483Z,69.44
2017-07-20T04:13:45.862Z,68.86
2017-07-20T04:16:12.445Z,69.06
2017-07-20T04:18:40.808Z,69.45
2017-07-20T04:21:07.191Z,69.00
2017-07-20T04:23:33.560Z,69.04
2017-07-20T04:25:59.934Z,69.07
2017-07-20T04:28:26.318Z,69.00
2017-07-20T04:30:52.720Z,68.97
2017-07-20T04:33:19.866Z,68.92
2017-07-20T04:35:46.234Z,68.85
2017-07-20T04:38:13.370Z,68.81
2017-07-20T04:40:39.731Z,68.80
2017-07-20T04:43:06.094Z,68.75
2017-07-20T04:45:33.243Z,68.76
2017-07-20T04:47:59.614Z,68.76
2017-07-20T04:50:26.782Z,68.71
2017-07-20T04:52:53.179Z,68.71
2017-07-20T04:55:19.542Z,68.67
2017-07-20T04:57:45.907Z,68.66
2017-07-20T05:00:12.282Z,68.68
2017-07-20T05:02:38.643Z,68.70
2017-07-20T05:05:05.014Z,68.80
2017-07-20T05:07:31.413Z,69.13
2017-07-20T05:09:57.770Z,69.07
2017-07-20T05:12:25.071Z,69.10
2017-07-20T05:14:51.431Z,68.98
2017-07-20T05:17:17.803Z,68.95
2017-07-20T05:19:44.176Z,68.92
2017-07-20T05:22:10.546Z,68.88
2017-07-20T05:24:37.708Z,68.87
2017-07-20T05:27:04.079Z,68.87
2017-07-20T05:29:30.457Z,68.85
2017-07-20T05:31:56.850Z,68.82
2017-07-20T05:34:23.243Z,68.84
2017-07-20T05:36:49.635Z,68.79
2017-07-20T05:39:16.006Z,68.80
2017-07-20T05:41:42.567Z,68.80
2017-07-20T05:44:08.934Z,68.77
2017-07-20T05:46:36.067Z,68.84
2017-07-20T05:49:02.442Z,68.91
2017-07-20T05:51:29.576Z,69.03
2017-07-20T05:53:55.955Z,69.07
2017-07-20T05:56:22.506Z,69.01
2017-07-20T05:58:49.651Z,69.01
2017-07-20T06:01:16.015Z,69.01
2017-07-20T06:03:43.154Z,69.00
2017-07-20T06:06:09.514Z,69.00
2017-07-20T06:08:35.887Z,69.03
2017-07-20T06:11:03.032Z,69.04
2017-07-20T06:13:29.422Z,69.02
2017-07-20T06:15:55.783Z,69.00
2017-07-20T06:18:22.159Z,68.98
2017-07-20T06:20:48.532Z,68.97
2017-07-20T06:23:14.901Z,68.95
2017-07-20T06:25:41.277Z,68.99
2017-07-20T06:28:07.660Z,69.04
2017-07-20T06:30:34.028Z,69.05
2017-07-20T06:33:00.406Z,69.27
2017-07-20T06:35:27.632Z,69.47
2017-07-20T06:37:54.004Z,69.62
2017-07-20T06:40:20.542Z,69.88
2017-07-20T06:42:47.102Z,69.97
2017-07-20T06:45:13.457Z,69.60
2017-07-20T06:47:39.825Z,69.29
2017-07-20T06:50:06.226Z,69.28
2017-07-20T06:52:32.620Z,69.50
2017-07-20T06:54:59.006Z,69.42
2017-07-20T06:57:25.386Z,70.09
2017-07-20T06:59:51.938Z,69.62
2017-07-20T07:02:18.489Z,69.53
2017-07-20T07:04:44.864Z,69.46
2017-07-20T07:07:11.240Z,69.41
2017-07-20T07:09:37.598Z,69.42
2017-07-20T07:12:03.983Z,69.45
2017-07-20T07:14:31.405Z,69.46
2017-07-20T07:16:58.640Z,69.58
2017-07-20T07:19:25.187Z,69.59
2017-07-20T07:21:51.759Z,69.67
2017-07-20T07:24:18.150Z,70.31
2017-07-20T07:26:44.530Z,70.17
2017-07-20T07:29:10.940Z,69.88
2017-07-20T07:31:38.177Z,69.69
2017-07-20T07:34:04.539Z,69.71
2017-07-20T07:36:30.939Z,71.81
2017-07-20T07:38:57.326Z,70.40
2017-07-20T07:41:23.701Z,70.09
2017-07-20T07:43:50.850Z,70.01
2017-07-20T07:46:17.203Z,69.95
2017-07-20T07:48:43.570Z,69.88
2017-07-20T07:51:10.710Z,69.81
2017-07-20T07:53:37.088Z,70.55
2017-07-20T07:56:04.223Z,70.21
2017-07-20T07:58:30.698Z,70.12
2017-07-20T08:00:57.072Z,70.43
2017-07-20T08:03:23.426Z,70.50
2017-07-20T08:05:49.791Z,70.62
2017-07-20T08:08:16.169Z,70.51
2017-07-20T08:13:09.054Z,70.29
2017-07-20T08:15:35.489Z,70.29
2017-07-20T08:18:01.854Z,70.23
2017-07-20T08:20:28.234Z,70.33
2017-07-20T08:22:54.782Z,69.91
2017-07-20T08:25:21.319Z,69.99
2017-07-20T08:27:47.707Z,70.15
2017-07-20T08:30:14.314Z,70.23
2017-07-20T08:32:41.023Z,70.52
2017-07-20T08:35:07.680Z,70.57
2017-07-20T08:37:34.090Z,70.91
2017-07-20T08:40:00.654Z,71.19
2017-07-20T08:42:27.226Z,71.56
2017-07-20T08:44:53.600Z,71.66
2017-07-20T08:47:19.998Z,71.82
2017-07-20T08:49:46.458Z,71.77
2017-07-20T08:52:13.009Z,71.80
2017-07-20T08:54:39.379Z,71.64
2017-07-20T08:57:05.766Z,71.67
2017-07-20T08:59:32.123Z,71.60
2017-07-20T09:01:58.482Z,71.53
2017-07-20T09:04:24.870Z,71.36
2017-07-20T09:06:51.238Z,71.40
2017-07-20T09:09:18.389Z,71.39
2017-07-20T09:11:44.781Z,71.39
2017-07-20T09:14:11.226Z,71.34
2017-07-20T09:16:37.595Z,71.48
2017-07-20T09:19:04.074Z,71.57
2017-07-20T09:21:30.450Z,71.60
2017-07-20T09:23:56.810Z,71.63
2017-07-20T09:26:23.331Z,71.68
2017-07-20T09:28:49.883Z,71.69
2017-07-20T09:31:16.290Z,71.67
2017-07-20T09:33:42.667Z,71.62
2017-07-20T09:36:09.139Z,71.61
2017-07-20T09:38:35.512Z,71.56
2017-07-20T09:41:01.973Z,71.50
2017-07-20T09:43:29.226Z,71.35
2017-07-20T09:45:55.593Z,71.24
2017-07-20T09:48:22.004Z,71.19
2017-07-20T09:50:48.398Z,71.11
2017-07-20T09:53:15.536Z,71.11
2017-07-20T09:55:41.911Z,71.07
2017-07-20T09:58:09.059Z,70.99
2017-07-20T10:00:35.439Z,71.26
2017-07-20T10:03:01.812Z,71.81
2017-07-20T10:05:28.220Z,72.08
2017-07-20T10:07:54.749Z,72.50
2017-07-20T10:10:21.116Z,72.36
2017-07-20T10:12:47.492Z,72.38
2017-07-20T10:15:13.885Z,72.03
2017-07-20T10:17:40.243Z,71.63
2017-07-20T10:20:06.618Z,71.31
2017-07-20T10:22:33.748Z,71.48
2017-07-20T10:25:00.134Z,71.45
2017-07-20T10:27:26.515Z,71.01
2017-07-20T10:29:52.922Z,71.24
2017-07-20T10:32:19.293Z,71.04
2017-07-20T10:34:45.672Z,70.97
2017-07-20T10:37:12.063Z,70.92
2017-07-20T10:39:38.427Z,70.92
2017-07-20T10:42:05.038Z,70.85
2017-07-20T10:44:31.570Z,70.91
2017-07-20T10:46:57.943Z,70.83
2017-07-20T10:49:24.322Z,70.50
2017-07-20T10:51:50.929Z,70.40
2017-07-20T10:54:17.734Z,70.20
2017-07-20T10:56:44.119Z,70.22
2017-07-20T10:59:11.243Z,70.32
2017-07-20T11:01:37.726Z,70.17
2017-07-20T11:04:04.079Z,70.01
2017-07-20T11:06:30.488Z,69.88
2017-07-20T11:08:56.846Z,69.75
2017-07-20T11:11:23.215Z,69.79
2017-07-20T11:13:50.379Z,69.57
2017-07-20T11:16:16.775Z,69.50
2017-07-20T11:18:43.157Z,69.44
2017-07-20T11:21:09.531Z,69.44
2017-07-20T11:23:35.900Z,69.29
2017-07-20T11:26:02.352Z,69.17
2017-07-20T11:28:29.488Z,69.20
2017-07-20T11:30:55.879Z,69.08
2017-07-20T11:33:23.054Z,69.04
2017-07-20T11:35:49.499Z,69.02
2017-07-20T11:38:17.060Z,68.96
2017-07-20T11:40:43.590Z,68.90
2017-07-20T11:43:10.187Z,68.84
2017-07-20T11:45:36.691Z,68.84
2017-07-20T11:48:03.074Z,68.81
2017-07-20T11:50:29.587Z,68.78
2017-07-20T11:52:55.983Z,68.77
2017-07-20T11:55:22.381Z,68.69
2017-07-20T11:57:48.873Z,68.71
2017-07-20T12:00:15.399Z,68.69
2017-07-20T12:02:41.775Z,68.70
2017-07-20T12:05:08.181Z,68.68
2017-07-20T12:07:34.702Z,68.58
2017-07-20T12:10:01.076Z,68.48
2017-07-20T12:12:27.447Z,68.36
2017-07-20T12:14:53.838Z,68.22
2017-07-20T12:17:20.215Z,68.08
2017-07-20T12:19:46.595Z,68.04
2017-07-20T12:22:12.968Z,67.89
2017-07-20T12:24:39.356Z,67.73
2017-07-20T12:27:05.734Z,67.76
2017-07-20T12:29:32.122Z,67.68
2017-07-20T12:31:58.503Z,67.57
2017-07-20T12:34:24.901Z,67.64
2017-07-20T12:36:51.269Z,67.48
2017-07-20T12:39:17.658Z,67.29
2017-07-20T12:41:44.078Z,67.35
2017-07-20T12:44:10.470Z,67.74
2017-07-20T12:46:36.844Z,68.08
2017-07-20T12:49:03.207Z,68.27
2017-07-20T12:51:29.603Z,68.26
2017-07-20T12:53:55.959Z,68.21
2017-07-20T12:56:22.332Z,68.21
2017-07-20T12:58:48.707Z,68.16
2017-07-20T13:01:15.147Z,68.12
2017-07-20T13:03:41.552Z,68.08
2017-07-20T13:06:07.902Z,68.05
2017-07-20T13:08:34.295Z,67.94
2017-07-20T13:11:00.667Z,68.12
2017-07-20T13:13:27.036Z,68.02
2017-07-20T13:15:54.163Z,68.09
2017-07-20T13:18:20.539Z,68.06
2017-07-20T13:20:46.980Z,67.99
2017-07-20T13:23:13.362Z,67.91
2017-07-20T13:25:39.734Z,67.74
2017-07-20T13:28:06.135Z,67.95
2017-07-20T13:30:32.511Z,68.02
2017-07-20T13:32:59.635Z,68.01
2017-07-20T13:35:26.023Z,67.94
2017-07-20T13:37:53.162Z,67.83
2017-07-20T13:40:19.551Z,67.77
2017-07-20T13:42:45.923Z,67.57
2017-07-20T13:45:12.302Z,68.81
2017-07-20T13:47:38.687Z,68.87
2017-07-20T13:50:05.071Z,68.65
2017-07-20T13:52:31.442Z,69.63
2017-07-20T13:54:57.811Z,70.10
2017-07-20T13:57:24.194Z,70.25
2017-07-20T13:59:50.815Z,70.28
2017-07-20T14:02:17.360Z,70.05
2017-07-20T14:04:43.909Z,69.23
2017-07-20T14:07:10.459Z,68.68
2017-07-20T14:09:36.830Z,68.37
2017-07-20T14:12:03.358Z,67.92
2017-07-20T14:14:29.843Z,67.59
2017-07-20T14:16:56.206Z,67.29
2017-07-20T14:19:23.355Z,67.03
2017-07-20T14:21:49.803Z,67.22
2017-07-20T14:24:16.183Z,66.84
2017-07-20T14:26:42.570Z,66.27
2017-07-20T14:29:08.984Z,66.44
2017-07-20T14:31:36.202Z,66.08
2017-07-20T14:34:02.595Z,66.15
2017-07-20T14:36:29.127Z,66.04
2017-07-20T14:38:55.662Z,65.91
2017-07-20T14:41:22.220Z,65.67
2017-07-20T14:43:48.766Z,65.78
2017-07-20T14:46:15.164Z,65.43
2017-07-20T14:48:41.680Z,65.33
2017-07-20T14:51:08.060Z,64.98
2017-07-20T14:53:34.436Z,64.99
2017-07-20T14:56:00.810Z,65.02
2017-07-20T14:58:27.323Z,64.89
2017-07-20T15:00:53.823Z,64.40
2017-07-20T15:03:20.183Z,63.68
2017-07-20T15:05:46.743Z,63.39
2017-07-20T15:08:13.120Z,63.72
2017-07-20T15:10:39.643Z,63.49
2017-07-20T15:13:06.199Z,63.52
2017-07-20T15:15:32.749Z,63.54
2017-07-20T15:17:59.299Z,63.51
2017-07-20T15:20:25.851Z,63.66
2017-07-20T15:22:52.217Z,63.52
2017-07-20T15:25:18.595Z,63.59
2017-07-20T15:27:45.103Z,63.79
2017-07-20T15:30:11.519Z,64.00
2017-07-20T15:32:38.015Z,64.19
2017-07-20T15:35:04.430Z,64.63
2017-07-20T15:37:30.903Z,64.68
2017-07-20T15:39:57.349Z,64.91
2017-07-20T15:42:23.778Z,65.42
2017-07-20T15:44:50.141Z,65.49
2017-07-20T15:47:16.543Z,65.82
2017-07-20T15:49:42.907Z,66.44
2017-07-20T15:52:09.283Z,66.50
2017-07-20T15:54:35.677Z,66.66
2017-07-20T15:57:02.030Z,67.89
2017-07-20T15:59:28.434Z,66.62
2017-07-20T16:01:54.816Z,67.41
2017-07-20T16:04:21.182Z,67.06
2017-07-20T16:06:47.574Z,66.57
2017-07-20T16:09:14.179Z,66.72
2017-07-20T16:21:55.732Z,65.89
2017-07-20T16:24:23.052Z,66.28
2017-07-20T16:26:49.428Z,66.37
2017-07-20T16:29:15.879Z,66.49
2017-07-20T16:31:42.423Z,66.57
2017-07-20T16:34:08.822Z,66.65
2017-07-20T16:36:35.321Z,66.63
2017-07-20T16:39:01.707Z,66.74
2017-07-20T16:41:28.107Z,66.59
2017-07-20T16:43:54.584Z,66.80
2017-07-20T16:46:20.961Z,66.65
2017-07-20T16:48:47.341Z,66.77
2017-07-20T16:51:13.697Z,66.69
2017-07-20T16:53:40.108Z,66.60
2017-07-20T16:56:07.239Z,66.59
2017-07-20T16:58:33.896Z,66.64
2017-07-20T17:01:00.427Z,66.54
2017-07-20T17:03:26.791Z,66.42
2017-07-20T17:05:53.163Z,68.03
2017-07-20T17:08:19.542Z,68.22
2017-07-20T17:10:45.908Z,68.04
2017-07-20T17:13:12.271Z,67.94
2017-07-20T17:15:38.671Z,67.68
2017-07-20T17:18:05.818Z,67.37
2017-07-20T17:20:32.190Z,66.80
2017-07-20T17:22:58.583Z,66.70
2017-07-20T17:25:24.958Z,66.71
2017-07-20T17:27:51.327Z,66.60
2017-07-20T17:30:17.695Z,66.69
2017-07-20T17:32:44.065Z,66.61
2017-07-20T17:35:10.447Z,66.54
2017-07-20T17:37:36.802Z,66.61
2017-07-20T17:40:03.168Z,66.56
2017-07-20T17:42:29.544Z,66.53
2017-07-20T17:44:56.690Z,66.59
2017-07-20T17:47:23.092Z,66.57
2017-07-20T17:49:49.476Z,66.98
2017-07-20T17:52:15.846Z,66.89
2017-07-20T17:54:42.218Z,67.02
2017-07-20T17:57:08.615Z,67.09
2017-07-20T17:59:35.007Z,66.85
2017-07-20T18:02:02.139Z,66.63
2017-07-20T18:04:28.538Z,66.58
2017-07-20T18:06:55.682Z,66.41
2017-07-20T18:09:22.041Z,66.41
2017-07-20T18:11:49.164Z,66.41
2017-07-20T18:14:15.523Z,66.43
2017-07-20T18:16:41.898Z,66.46
2017-07-20T18:19:08.280Z,66.45
2017-07-20T18:21:34.690Z,66.48
2017-07-20T18:24:01.113Z,66.35
2017-07-20T18:26:27.474Z,66.28
2017-07-20T18:28:53.862Z,66.54
2017-07-20T18:31:20.999Z,66.70
2017-07-20T18:33:47.356Z,66.60
2017-07-20T18:36:13.778Z,66.56
2017-07-20T18:38:40.162Z,66.31
2017-07-20T18:41:06.564Z,66.47
2017-07-20T18:43:32.943Z,66.46
2017-07-20T18:45:59.325Z,66.52
2017-07-20T18:48:26.461Z,66.51
2017-07-20T18:50:52.837Z,66.34
2017-07-20T18:53:19.230Z,66.39
2017-07-20T18:55:45.645Z,66.44
2017-07-20T18:58:12.800Z,66.44
2017-07-20T19:00:39.192Z,66.43
2017-07-20T19:03:05.554Z,66.47
2017-07-20T19:05:31.977Z,66.46
2017-07-20T19:07:59.119Z,66.36
2017-07-20T19:10:25.488Z,66.21
2017-07-20T19:12:52.745Z,66.09
2017-07-20T19:15:19.131Z,66.00
2017-07-20T19:17:45.526Z,66.04
2017-07-20T19:20:11.911Z,65.96
2017-07-20T19:22:38.294Z,65.95
2017-07-20T19:25:04.668Z,65.88
2017-07-20T19:27:31.034Z,65.84
2017-07-20T19:29:57.403Z,65.79
2017-07-20T19:32:23.771Z,65.79
2017-07-20T19:34:50.162Z,65.76
2017-07-20T19:37:16.539Z,65.74
2017-07-20T19:39:42.959Z,65.75
2017-07-20T19:42:09.331Z,65.73
2017-07-20T19:44:35.712Z,65.60
2017-07-20T19:47:02.111Z,65.76
2017-07-20T19:49:28.470Z,65.77
2017-07-20T19:51:54.872Z,65.75
2017-07-20T19:54:21.251Z,65.76
2017-07-20T19:56:47.662Z,65.82
2017-07-20T19:59:14.057Z,65.82
2017-07-20T20:01:40.415Z,65.82
2017-07-20T20:04:06.819Z,65.77
2017-07-20T20:06:33.211Z,65.79
2017-07-20T20:08:59.586Z,65.77
2017-07-20T20:11:26.012Z,65.73
2017-07-20T20:13:53.496Z,65.69
2017-07-20T20:16:19.888Z,65.63
2017-07-20T20:18:46.260Z,65.49
2017-07-20T20:21:12.801Z,65.62
2017-07-20T20:23:39.190Z,65.63
2017-07-20T20:26:05.579Z,65.59
2017-07-20T20:28:32.706Z,65.56
2017-07-20T20:30:59.094Z,65.66
2017-07-20T20:33:26.260Z,65.70
2017-07-20T20:35:53.573Z,65.67
2017-07-20T20:38:19.945Z,65.63
2017-07-20T20:40:46.308Z,65.64
2017-07-20T20:43:12.901Z,65.49
2017-07-20T20:45:39.290Z,65.52
2017-07-20T20:48:05.653Z,65.44
2017-07-20T20:50:32.030Z,65.57
2017-07-20T20:52:58.399Z,65.63
2017-07-20T20:55:24.773Z,65.66
2017-07-20T20:57:51.165Z,65.65
2017-07-20T21:00:17.727Z,65.63
2017-07-20T21:02:44.103Z,65.60
2017-07-20T21:05:10.472Z,65.38
2017-07-20T21:07:36.852Z,65.50
2017-07-20T21:10:03.267Z,65.58
2017-07-20T21:12:29.637Z,65.61
2017-07-20T21:14:56.011Z,65.51
2017-07-20T21:17:22.369Z,65.52
2017-07-20T21:19:48.735Z,65.59
2017-07-20T21:22:15.874Z,65.54
2017-07-20T21:24:42.227Z,64.93
2017-07-20T21:27:08.629Z,65.22
2017-07-20T21:29:35.035Z,65.32
2017-07-20T21:32:01.432Z,65.45
2017-07-20T21:34:27.800Z,65.40
2017-07-20T21:36:54.194Z,65.40
2017-07-20T21:39:21.329Z,65.46
2017-07-20T21:41:47.721Z,65.55
2017-07-20T21:44:14.852Z,65.64
2017-07-20T21:46:42.338Z,65.83
2017-07-20T21:49:08.880Z,65.16
2017-07-20T21:51:35.252Z,65.76
2017-07-20T21:54:01.787Z,65.60
2017-07-20T21:56:28.161Z,65.17
2017-07-20T21:58:55.008Z,65.27
2017-07-20T22:01:21.388Z,64.49
2017-07-20T22:03:48.662Z,65.18
2017-07-20T22:06:15.037Z,64.82
2017-07-20T22:08:41.403Z,65.37
2017-07-20T22:11:07.778Z,64.56
2017-07-20T22:13:34.210Z,65.28
2017-07-20T22:16:00.584Z,65.29
2017-07-20T22:18:26.949Z,65.22
2017-07-20T22:20:53.350Z,64.95
2017-07-20T22:23:19.716Z,65.09
2017-07-20T22:25:46.165Z,64.94
2017-07-20T22:28:12.537Z,65.04
2017-07-20T22:30:38.899Z,64.59
2017-07-20T22:33:05.285Z,64.76
2017-07-20T22:35:31.721Z,64.96
2017-07-20T22:37:58.120Z,64.89
2017-07-20T22:40:24.495Z,64.59
2017-07-20T22:42:50.877Z,64.62
2017-07-20T22:45:17.526Z,64.65
2017-07-20T22:47:43.998Z,64.82
2017-07-20T22:50:10.380Z,63.35
2017-07-20T22:52:36.773Z,63.60
2017-07-20T22:55:03.926Z,64.05
2017-07-20T22:57:31.062Z,64.18
2017-07-20T22:59:57.427Z,64.10
2017-07-20T23:02:23.791Z,64.04
2017-07-20T23:04:50.962Z,63.98
2017-07-20T23:07:18.226Z,64.10
2017-07-20T23:09:44.658Z,64.32
2017-07-20T23:12:11.038Z,64.06
2017-07-20T23:14:37.623Z,64.23
2017-07-20T23:17:04.021Z,64.18
2017-07-20T23:19:30.415Z,64.17
2017-07-20T23:21:56.788Z,64.04
2017-07-20T23:24:23.165Z,64.22
2017-07-20T23:26:49.588Z,64.04
2017-07-20T23:29:15.975Z,63.69
2017-07-20T23:31:42.350Z,64.17
2017-07-20T23:34:08.726Z,64.10
2017-07-20T23:36:35.105Z,63.94
2017-07-20T23:39:01.479Z,64.19
2017-07-20T23:41:28.634Z,64.19
2017-07-20T23:43:54.995Z,64.08
2017-07-20T23:46:22.174Z,64.09
2017-07-20T23:48:49.303Z,64.05
2017-07-20T23:51:15.703Z,63.84
2017-07-20T23:53:42.066Z,63.78
2017-07-20T23:56:08.455Z,63.53
2017-07-20T23:58:34.969Z,63.69
